Tetlin, Alaska
Current Conditions -  °F | °C
As of 8:53 AM on Thursday 29 Jan 2015 (Local Time) from PAOR Reporting Station
Broken Clouds Broken Clouds  
Wind Chill: -25°   Ceiling: 2800
Heat Index: -25°   Visibility: 10mi
Dew Point: -32°   Wind: 0mph
Humidity: 69%   Direction: NA
Pressure: 30.32"   Gusts: NA
Location:  63.13°N, 142.52°W
Report Text: PAOR 291753Z 00000KT 10SM BKN028 BKN037 BKN120 M32/M36 A3032 RMK AO2 SLP375 4/009 T13171356 11317 21372 53013
Loading
Personal Weather Stations






























Interactive Weather Map New forecast layout! Learn more

10-Day Weather Forecast

Advertisements
Track Severe Weather on mobile